createdAt,value
2019-05-30T00:01:54.165Z,10.93
2019-05-30T00:04:24.772Z,8.23
2019-05-30T00:06:58.640Z,8.70
2019-05-30T00:09:29.317Z,9.00
2019-05-30T00:12:00.830Z,8.83
2019-05-30T00:14:31.465Z,9.27
2019-05-30T00:17:03.021Z,8.30
2019-05-30T00:19:34.165Z,8.47
2019-05-30T00:22:05.614Z,9.40
2019-05-30T00:24:36.278Z,10.13
2019-05-30T00:27:06.762Z,9.87
2019-05-30T00:29:37.212Z,10.87
2019-05-30T00:32:07.926Z,9.53
2019-05-30T00:34:38.536Z,11.13
2019-05-30T00:37:09.143Z,9.07
2019-05-30T00:39:39.651Z,10.00
2019-05-30T00:42:10.161Z,11.17
2019-05-30T00:44:40.636Z,10.13
2019-05-30T00:47:11.098Z,9.67
2019-05-30T00:49:41.593Z,11.40
2019-05-30T00:52:12.060Z,9.20
2019-05-30T00:54:45.530Z,10.10
2019-05-30T00:57:16.039Z,9.50
2019-05-30T00:59:46.509Z,10.17
2019-05-30T01:02:16.970Z,10.37
2019-05-30T01:04:47.398Z,10.13
2019-05-30T01:07:17.953Z,9.50
2019-05-30T01:09:49.970Z,11.43
2019-05-30T01:12:20.587Z,10.30
2019-05-30T01:14:51.068Z,10.03
2019-05-30T01:17:21.667Z,10.50
2019-05-30T01:19:52.151Z,10.43
2019-05-30T01:22:23.140Z,10.53
2019-05-30T01:24:54.218Z,12.23
2019-05-30T01:27:25.566Z,10.40
2019-05-30T01:29:57.321Z,11.50
2019-05-30T01:32:30.765Z,13.17
2019-05-30T01:35:02.186Z,12.07
2019-05-30T01:37:32.797Z,11.77
2019-05-30T01:40:04.225Z,12.30
2019-05-30T01:42:34.898Z,12.60
2019-05-30T01:45:06.646Z,14.37
2019-05-30T01:47:37.171Z,11.70
2019-05-30T01:50:09.115Z,15.57
2019-05-30T01:52:39.937Z,19.27
2019-05-30T01:55:11.354Z,13.43
2019-05-30T01:57:41.850Z,16.37
2019-05-30T02:00:20.571Z,16.00
2019-05-30T02:02:45.730Z,19.17
2019-05-30T02:05:19.589Z,16.43
2019-05-30T02:07:50.114Z,18.53
2019-05-30T02:10:20.577Z,16.60
2019-05-30T02:12:51.228Z,17.60
2019-05-30T02:15:25.389Z,16.53
2019-05-30T02:17:55.973Z,19.33
2019-05-30T02:20:26.574Z,21.67
2019-05-30T02:22:57.171Z,20.07
2019-05-30T02:25:27.640Z,22.73
2019-05-30T02:27:58.140Z,22.70
2019-05-30T02:30:28.593Z,21.73
2019-05-30T02:33:00.600Z,21.53
2019-05-30T02:35:31.256Z,22.50
2019-05-30T02:38:03.006Z,23.77
2019-05-30T02:40:33.842Z,26.97
2019-05-30T02:43:05.803Z,30.70
2019-05-30T02:45:36.763Z,29.13
2019-05-30T02:48:07.502Z,32.23
2019-05-30T02:50:38.044Z,33.07
2019-05-30T02:53:10.483Z,34.50
2019-05-30T02:55:41.049Z,24.00
2019-05-30T02:58:12.868Z,22.47
2019-05-30T03:00:43.911Z,25.50
2019-05-30T03:03:15.691Z,24.57
2019-05-30T03:05:46.129Z,16.03
2019-05-30T03:08:16.668Z,13.10
2019-05-30T03:10:47.402Z,18.20
2019-05-30T03:13:18.089Z,13.73
2019-05-30T03:15:48.830Z,12.93
2019-05-30T03:18:21.690Z,10.70
2019-05-30T03:20:54.800Z,10.87
2019-05-30T03:23:26.711Z,10.00
2019-05-30T03:25:57.183Z,14.33
2019-05-30T03:28:27.716Z,17.27
2019-05-30T03:30:59.683Z,13.13
2019-05-30T03:33:38.774Z,10.23
2019-05-30T03:36:08.961Z,7.57
2019-05-30T03:38:34.647Z,12.03
2019-05-30T03:41:06.765Z,7.17
2019-05-30T03:43:37.466Z,7.07
2019-05-30T03:46:14.975Z,7.77
2019-05-30T03:48:49.614Z,6.43
2019-05-30T03:51:22.252Z,9.03
2019-05-30T03:53:53.245Z,6.83
2019-05-30T03:56:34.258Z,8.63
2019-05-30T03:59:28.581Z,11.53
2019-05-30T04:02:22.393Z,13.53
2019-05-30T04:05:06.789Z,21.70
2019-05-30T04:07:44.537Z,14.90
2019-05-30T04:10:19.697Z,16.67
2019-05-30T04:13:29.180Z,25.20
2019-05-30T04:15:59.667Z,30.37
2019-05-30T04:18:30.098Z,37.70
2019-05-30T04:21:01.222Z,38.20
2019-05-30T04:23:31.687Z,42.83
2019-05-30T04:26:02.267Z,43.87
2019-05-30T04:28:32.904Z,47.70
2019-05-30T04:31:03.586Z,35.50
2019-05-30T04:33:34.242Z,37.47
2019-05-30T04:36:08.259Z,43.60
2019-05-30T04:38:38.775Z,39.37
2019-05-30T04:41:11.149Z,39.90
2019-05-30T04:43:41.695Z,36.77
2019-05-30T04:46:17.281Z,33.47
2019-05-30T04:48:48.297Z,33.43
2019-05-30T04:51:21.314Z,30.20
2019-05-30T04:53:51.264Z,29.13
2019-05-30T04:56:22.246Z,29.87
2019-05-30T04:58:52.886Z,28.17
2019-05-30T05:01:23.479Z,29.20
2019-05-30T05:03:54.070Z,24.30
2019-05-30T05:06:25.693Z,22.53
2019-05-30T05:08:56.170Z,18.33
2019-05-30T05:11:26.714Z,17.57
2019-05-30T05:13:57.527Z,15.40
2019-05-30T05:16:35.401Z,15.03
2019-05-30T05:19:00.336Z,15.60
2019-05-30T05:21:31.015Z,14.20
2019-05-30T05:24:01.876Z,12.43
2019-05-30T05:26:33.869Z,12.13
2019-05-30T05:29:04.418Z,12.63
2019-05-30T05:31:35.089Z,12.20
2019-05-30T05:34:05.791Z,11.60
2019-05-30T05:36:36.346Z,12.53
2019-05-30T05:39:08.518Z,12.30
2019-05-30T05:41:40.678Z,13.93
2019-05-30T05:44:11.277Z,11.93
2019-05-30T05:46:41.994Z,12.83
2019-05-30T05:49:12.574Z,12.10
2019-05-30T05:51:45.389Z,11.83
2019-05-30T05:54:16.821Z,11.93
2019-05-30T05:56:47.420Z,12.50
2019-05-30T05:59:18.913Z,11.43
2019-05-30T06:01:51.570Z,10.93
2019-05-30T06:04:23.134Z,13.00
2019-05-30T06:06:53.829Z,11.23
2019-05-30T06:09:26.204Z,11.20
2019-05-30T06:11:56.740Z,11.93
2019-05-30T06:14:28.146Z,12.63
2019-05-30T06:16:58.720Z,11.60
2019-05-30T06:19:44.979Z,11.10
2019-05-30T06:22:01.518Z,10.07
2019-05-30T06:24:31.966Z,11.03
2019-05-30T06:27:02.493Z,9.77
2019-05-30T06:29:33.063Z,10.40
2019-05-30T06:32:04.872Z,9.77
2019-05-30T06:34:39.362Z,10.17
2019-05-30T06:37:07.665Z,9.83
2019-05-30T06:39:38.201Z,8.97
2019-05-30T06:42:08.725Z,8.03
2019-05-30T06:44:39.234Z,8.33
2019-05-30T06:47:09.908Z,8.07
2019-05-30T06:49:40.372Z,7.00
2019-05-30T06:52:12.170Z,6.80
2019-05-30T06:54:43.680Z,5.93
2019-05-30T06:57:14.247Z,6.33
2019-05-30T06:59:44.709Z,6.30
2019-05-30T07:02:17.196Z,6.93
2019-05-30T07:04:52.200Z,7.17
2019-05-30T07:07:20.100Z,7.13
2019-05-30T07:09:50.742Z,6.87
2019-05-30T07:12:21.275Z,5.70
2019-05-30T07:14:51.805Z,6.07
2019-05-30T07:17:23.233Z,6.10
2019-05-30T07:19:54.067Z,7.17
2019-05-30T07:22:25.602Z,5.60
2019-05-30T07:24:56.277Z,6.03
2019-05-30T07:27:27.832Z,5.63
2019-05-30T07:29:59.781Z,5.90
2019-05-30T07:32:30.527Z,4.53
2019-05-30T07:35:06.815Z,6.23
2019-05-30T07:37:34.378Z,5.97
2019-05-30T07:40:05.825Z,5.03
2019-05-30T07:42:36.303Z,6.33
2019-05-30T07:45:11.819Z,4.17
2019-05-30T07:47:42.582Z,5.93
2019-05-30T07:50:13.880Z,4.00
2019-05-30T07:52:44.868Z,3.60
2019-05-30T07:55:15.987Z,4.00
2019-05-30T07:57:47.346Z,3.63
2019-05-30T08:00:20.423Z,3.30
2019-05-30T08:02:51.349Z,3.93
2019-05-30T08:05:24.719Z,4.13
2019-05-30T08:07:54.228Z,4.10
2019-05-30T08:10:27.762Z,3.70
2019-05-30T08:12:58.326Z,3.83
2019-05-30T08:15:29.327Z,3.23
2019-05-30T08:17:59.788Z,4.37
2019-05-30T08:20:31.678Z,3.43
2019-05-30T08:23:02.913Z,3.63
2019-05-30T08:25:34.260Z,3.60
2019-05-30T08:28:05.701Z,7.07
2019-05-30T08:30:36.688Z,3.70
2019-05-30T08:33:08.641Z,3.93
2019-05-30T08:35:49.167Z,3.07
2019-05-30T08:38:11.759Z,3.20
2019-05-30T08:40:42.381Z,6.27
2019-05-30T08:43:13.031Z,3.60
2019-05-30T08:45:49.999Z,3.67
2019-05-30T08:48:20.968Z,3.47
2019-05-30T08:50:53.521Z,5.30
2019-05-30T08:53:24.244Z,3.10
2019-05-30T08:55:56.019Z,2.53
2019-05-30T08:58:26.770Z,3.47
2019-05-30T09:00:57.288Z,2.77
2019-05-30T09:03:27.851Z,3.60
2019-05-30T09:06:03.812Z,2.87
2019-05-30T09:08:31.171Z,2.00
2019-05-30T09:11:04.031Z,1.80
2019-05-30T09:13:34.744Z,3.40
2019-05-30T09:16:05.372Z,3.60
2019-05-30T09:18:37.958Z,1.67
2019-05-30T09:21:08.804Z,1.80
2019-05-30T09:23:41.019Z,2.83
2019-05-30T09:26:11.553Z,2.60
2019-05-30T09:28:46.151Z,2.73
2019-05-30T09:31:16.786Z,2.10
2019-05-30T09:33:48.556Z,3.20
2019-05-30T09:36:19.241Z,2.30
2019-05-30T09:38:50.562Z,2.47
2019-05-30T09:41:21.086Z,2.03
2019-05-30T09:43:51.730Z,2.97
2019-05-30T09:46:22.398Z,2.73
2019-05-30T09:48:52.873Z,2.10
2019-05-30T09:51:26.456Z,3.10
2019-05-30T09:53:57.050Z,2.23
2019-05-30T09:56:27.542Z,2.87
2019-05-30T09:58:59.942Z,2.30
2019-05-30T10:01:31.920Z,5.03
2019-05-30T10:04:02.464Z,12.30
2019-05-30T10:06:33.066Z,3.50
2019-05-30T10:09:03.689Z,3.37
2019-05-30T10:11:35.950Z,2.00
2019-05-30T10:14:09.372Z,2.07
2019-05-30T10:16:40.058Z,3.33
2019-05-30T10:19:11.484Z,2.10
2019-05-30T10:21:42.188Z,2.23
2019-05-30T10:24:12.817Z,1.83
2019-05-30T10:26:45.585Z,3.83
2019-05-30T10:29:16.904Z,2.10
2019-05-30T10:31:48.306Z,3.00
2019-05-30T10:34:19.288Z,4.10
2019-05-30T10:36:51.665Z,1.80
2019-05-30T10:39:22.254Z,3.00
2019-05-30T10:41:53.174Z,3.00
2019-05-30T10:44:26.755Z,2.13
2019-05-30T10:46:57.269Z,1.87
2019-05-30T10:49:34.712Z,3.00
2019-05-30T10:52:00.014Z,3.17
2019-05-30T10:54:30.487Z,3.13
2019-05-30T10:57:01.767Z,2.53
2019-05-30T10:59:32.750Z,2.00
2019-05-30T11:02:05.286Z,2.07
2019-05-30T11:04:36.243Z,2.93
2019-05-30T11:07:37.046Z,2.73
2019-05-30T11:10:13.007Z,2.20
2019-05-30T11:12:44.720Z,3.50
2019-05-30T11:15:16.029Z,2.23
2019-05-30T11:17:47.227Z,2.13
2019-05-30T11:20:21.979Z,1.93
2019-05-30T11:22:53.339Z,3.27
2019-05-30T11:25:24.855Z,1.87
2019-05-30T11:27:56.770Z,2.90
2019-05-30T11:30:28.072Z,1.90
2019-05-30T11:32:59.427Z,2.70
2019-05-30T11:35:30.815Z,2.13
2019-05-30T11:38:01.312Z,2.20
2019-05-30T11:40:31.846Z,10.03
2019-05-30T11:43:02.382Z,2.13
2019-05-30T11:45:34.927Z,24.47
2019-05-30T11:48:07.755Z,3.33
2019-05-30T11:50:38.260Z,2.17
2019-05-30T11:53:09.801Z,2.33
2019-05-30T11:55:40.300Z,1.70
2019-05-30T11:58:12.978Z,1.70
2019-05-30T12:00:43.586Z,2.23
2019-05-30T12:03:14.340Z,4.40
2019-05-30T12:05:45.364Z,3.07
2019-05-30T12:08:19.501Z,2.17
2019-05-30T12:10:51.105Z,3.27
2019-05-30T12:13:23.116Z,1.87
2019-05-30T12:15:53.668Z,3.03
2019-05-30T12:18:24.366Z,2.50
2019-05-30T12:20:55.714Z,2.83
2019-05-30T12:23:26.391Z,3.93
2019-05-30T12:25:57.955Z,3.47
2019-05-30T12:28:28.603Z,3.70
2019-05-30T12:31:04.253Z,1.97
2019-05-30T12:33:31.301Z,2.07
2019-05-30T12:36:02.673Z,1.70
2019-05-30T12:38:33.314Z,1.83
2019-05-30T12:41:03.863Z,2.03
2019-05-30T12:43:34.414Z,1.50
2019-05-30T12:46:05.137Z,2.37
2019-05-30T12:48:35.663Z,1.60
2019-05-30T12:51:06.181Z,1.70
2019-05-30T12:53:36.850Z,1.27
2019-05-30T12:56:07.550Z,2.00
2019-05-30T12:58:38.080Z,1.37
2019-05-30T13:01:09.001Z,1.07
2019-05-30T13:03:39.699Z,1.27
2019-05-30T13:06:10.833Z,1.60
2019-05-30T13:08:41.655Z,2.20
2019-05-30T13:11:12.264Z,0.80
2019-05-30T13:13:43.081Z,2.73
2019-05-30T13:16:17.983Z,1.03
2019-05-30T13:18:48.624Z,0.97
2019-05-30T13:21:19.227Z,2.20
2019-05-30T13:23:49.681Z,1.33
2019-05-30T13:26:20.187Z,0.83
2019-05-30T13:28:53.224Z,1.20
2019-05-30T13:31:23.746Z,0.80
2019-05-30T13:33:54.607Z,1.53
2019-05-30T13:36:25.198Z,1.20
2019-05-30T13:38:57.029Z,2.10
2019-05-30T13:41:27.631Z,0.80
2019-05-30T13:43:58.191Z,1.30
2019-05-30T13:46:28.667Z,0.93
2019-05-30T13:49:00.812Z,1.17
2019-05-30T13:51:31.483Z,0.77
2019-05-30T13:57:50.057Z,0.90
2019-05-30T14:00:22.573Z,1.10
2019-05-30T14:02:53.044Z,0.87
2019-05-30T14:05:23.782Z,1.67
2019-05-30T14:07:54.357Z,1.67
2019-05-30T14:10:24.984Z,0.80
2019-05-30T14:12:56.003Z,1.53
2019-05-30T14:15:30.962Z,1.00
2019-05-30T14:18:04.942Z,1.20
2019-05-30T14:20:37.711Z,0.90
2019-05-30T14:23:09.385Z,0.87
2019-05-30T14:25:40.023Z,0.90
2019-05-30T14:28:12.114Z,2.33
2019-05-30T14:30:47.379Z,0.80
2019-05-30T14:33:24.447Z,0.77
2019-05-30T14:35:56.175Z,1.10
2019-05-30T14:38:26.735Z,1.03
2019-05-30T14:40:59.204Z,1.43
2019-05-30T14:43:29.726Z,1.70
2019-05-30T14:46:04.212Z,1.63
2019-05-30T14:48:34.028Z,0.70
2019-05-30T14:51:04.914Z,0.70
2019-05-30T14:53:35.395Z,2.67
2019-05-30T14:56:06.939Z,1.70
2019-05-30T14:58:37.660Z,1.00
2019-05-30T15:01:09.356Z,1.10
2019-05-30T15:03:42.442Z,1.20
2019-05-30T15:06:15.880Z,0.87
2019-05-30T15:08:47.423Z,1.17
2019-05-30T15:11:18.115Z,2.67
2019-05-30T15:13:48.626Z,1.30
2019-05-30T15:16:22.699Z,1.80
2019-05-30T15:18:54.758Z,2.50
2019-05-30T15:21:25.505Z,2.57
2019-05-30T15:23:56.220Z,1.93
2019-05-30T15:26:35.130Z,1.13
2019-05-30T15:29:05.985Z,1.20
2019-05-30T15:31:39.282Z,1.30
2019-05-30T15:34:10.534Z,1.50
2019-05-30T15:36:44.611Z,3.10
2019-05-30T15:39:31.626Z,0.93
2019-05-30T15:41:47.334Z,1.13
2019-05-30T15:44:18.870Z,1.50
2019-05-30T15:46:49.439Z,1.10
2019-05-30T15:49:19.929Z,1.60
2019-05-30T15:51:50.959Z,0.87
2019-05-30T15:54:21.413Z,1.13
2019-05-30T15:56:53.153Z,1.20
2019-05-30T15:59:24.139Z,2.03
2019-05-30T16:01:54.774Z,0.87
2019-05-30T16:04:27.042Z,0.90
2019-05-30T16:06:57.781Z,1.17
2019-05-30T16:09:46.597Z,0.87
2019-05-30T16:12:11.305Z,2.20
2019-05-30T16:14:43.239Z,0.93
2019-05-30T16:17:13.961Z,4.83
2019-05-30T16:19:44.784Z,2.23
2019-05-30T16:22:16.252Z,19.87
2019-05-30T16:24:47.103Z,2.87
2019-05-30T16:27:17.827Z,1.70
2019-05-30T16:29:48.393Z,1.77
2019-05-30T16:32:20.241Z,1.23
2019-05-30T16:34:53.805Z,10.63
2019-05-30T16:37:26.412Z,1.77
2019-05-30T16:40:05.752Z,2.27
2019-05-30T16:42:29.161Z,1.10
2019-05-30T16:45:00.905Z,1.57
2019-05-30T16:47:31.919Z,3.97
2019-05-30T16:50:03.472Z,1.50
2019-05-30T16:52:34.278Z,1.40
2019-05-30T16:55:11.212Z,1.53
2019-05-30T16:57:42.275Z,3.77
2019-05-30T17:00:17.690Z,1.20
2019-05-30T17:02:55.173Z,1.40
2019-05-30T17:05:25.644Z,2.47
2019-05-30T17:07:56.237Z,1.37
2019-05-30T17:10:32.539Z,1.83
2019-05-30T17:13:02.799Z,1.30
2019-05-30T17:15:35.235Z,1.17
2019-05-30T17:18:06.127Z,1.43
2019-05-30T17:20:37.961Z,2.03
2019-05-30T17:23:08.641Z,1.00
2019-05-30T17:25:40.564Z,1.60
2019-05-30T17:28:20.226Z,4.43
2019-05-30T17:30:53.361Z,2.63
2019-05-30T17:33:33.918Z,1.20
2019-05-30T17:36:06.773Z,1.73
2019-05-30T17:38:37.337Z,1.23
2019-05-30T17:41:07.937Z,3.23
2019-05-30T17:43:39.076Z,2.53
2019-05-30T17:46:09.722Z,1.47
2019-05-30T17:48:51.858Z,1.50
2019-05-30T17:51:23.750Z,2.50
2019-05-30T17:53:54.457Z,1.97
2019-05-30T17:56:34.553Z,2.43
2019-05-30T17:59:26.611Z,2.13
2019-05-30T18:02:00.851Z,1.87
2019-05-30T18:04:30.836Z,2.23
2019-05-30T18:07:16.870Z,1.83
2019-05-30T18:09:50.650Z,2.47
2019-05-30T18:12:22.970Z,1.50
2019-05-30T18:14:55.170Z,1.50
2019-05-30T18:17:37.221Z,1.40
2019-05-30T18:20:16.599Z,1.40
2019-05-30T18:22:49.301Z,1.77
2019-05-30T18:25:23.968Z,2.77
2019-05-30T18:27:54.577Z,1.60
2019-05-30T18:30:39.535Z,3.83
2019-05-30T18:33:10.323Z,1.87
2019-05-30T18:35:41.227Z,4.13
2019-05-30T18:38:11.809Z,1.60
2019-05-30T18:41:10.274Z,4.90
2019-05-30T18:43:29.316Z,2.10
2019-05-30T18:46:00.854Z,1.37
2019-05-30T18:48:35.470Z,6.60
2019-05-30T18:51:07.261Z,4.43
2019-05-30T18:53:37.865Z,2.27
2019-05-30T18:56:09.623Z,2.23
2019-05-30T18:58:40.328Z,4.07
2019-05-30T19:01:10.860Z,2.93
2019-05-30T19:03:41.702Z,3.53
2019-05-30T19:06:15.866Z,1.87
2019-05-30T19:08:53.548Z,3.20
2019-05-30T19:11:30.948Z,1.97
2019-05-30T19:14:00.454Z,3.03
2019-05-30T19:16:32.327Z,3.00
2019-05-30T19:19:03.119Z,4.40
2019-05-30T19:21:38.195Z,1.73
2019-05-30T19:24:08.927Z,2.53
2019-05-30T19:26:39.876Z,1.50
2019-05-30T19:29:10.755Z,5.37
2019-05-30T19:31:41.630Z,3.67
2019-05-30T19:34:12.416Z,2.30
2019-05-30T19:36:43.209Z,4.73
2019-05-30T19:39:15.213Z,2.03
2019-05-30T19:41:56.893Z,4.07
2019-05-30T19:44:21.941Z,1.60
2019-05-30T19:47:04.297Z,1.80
2019-05-30T19:49:38.660Z,1.53
2019-05-30T19:52:15.914Z,2.67
2019-05-30T19:54:46.548Z,2.07
2019-05-30T19:57:18.385Z,2.80
2019-05-30T19:59:52.039Z,23.13
2019-05-30T20:02:23.405Z,3.47
2019-05-30T20:04:54.691Z,2.03
2019-05-30T20:07:26.781Z,2.47
2019-05-30T20:10:01.534Z,6.53
2019-05-30T20:12:54.358Z,3.83
2019-05-30T20:15:25.514Z,1.77
2019-05-30T20:18:10.483Z,2.17
2019-05-30T20:20:53.893Z,3.63
2019-05-30T20:23:15.562Z,5.27
2019-05-30T20:25:51.020Z,4.53
2019-05-30T20:28:28.270Z,2.67
2019-05-30T20:30:58.913Z,2.10
2019-05-30T20:33:57.661Z,3.07
2019-05-30T20:36:28.241Z,4.47
2019-05-30T20:38:59.127Z,2.90
2019-05-30T20:41:29.795Z,3.50
2019-05-30T20:44:00.594Z,8.77
2019-05-30T20:46:31.453Z,14.43
2019-05-30T20:49:03.433Z,13.93
2019-05-30T20:51:35.517Z,4.30
2019-05-30T20:54:06.599Z,2.63
2019-05-30T20:56:37.596Z,2.80
2019-05-30T20:59:10.189Z,3.07
2019-05-30T21:01:41.679Z,5.33
2019-05-30T21:04:12.691Z,2.57
2019-05-30T21:06:45.424Z,2.50
2019-05-30T21:09:28.384Z,2.70
2019-05-30T21:11:53.901Z,3.13
2019-05-30T21:14:27.647Z,2.50
2019-05-30T21:17:00.660Z,3.10
2019-05-30T21:19:33.714Z,5.17
2019-05-30T21:22:04.452Z,3.47
2019-05-30T21:24:36.374Z,2.50
2019-05-30T21:27:07.595Z,3.53
2019-05-30T21:29:38.922Z,2.70
2019-05-30T21:32:09.745Z,2.30
2019-05-30T21:34:42.017Z,2.80
2019-05-30T21:37:12.657Z,2.80
2019-05-30T21:39:44.078Z,2.77
2019-05-30T21:42:14.842Z,2.77
2019-05-30T21:47:18.292Z,3.63
2019-05-30T21:47:39.487Z,2.47
2019-05-30T21:49:49.193Z,2.93
2019-05-30T21:52:20.865Z,5.63
2019-05-30T21:54:51.714Z,2.57
2019-05-30T21:57:22.169Z,3.00
2019-05-30T21:59:52.730Z,2.40
2019-05-30T22:02:23.433Z,2.63
2019-05-30T22:04:53.952Z,4.33
2019-05-30T22:07:24.608Z,2.73
2019-05-30T22:09:55.537Z,4.07
2019-05-30T22:12:26.228Z,3.20
2019-05-30T22:14:56.906Z,5.17
2019-05-30T22:17:27.655Z,4.40
2019-05-30T22:19:58.609Z,2.97
2019-05-30T22:22:29.078Z,4.40
2019-05-30T22:24:59.564Z,2.43
2019-05-30T22:27:30.013Z,3.27
2019-05-30T22:30:00.493Z,2.67
2019-05-30T22:32:30.932Z,2.40
2019-05-30T22:35:01.495Z,2.10
2019-05-30T22:37:31.998Z,5.10
2019-05-30T22:40:02.508Z,2.63
2019-05-30T22:42:33.087Z,2.57
2019-05-30T22:45:03.690Z,2.20
2019-05-30T22:47:35.788Z,2.30
2019-05-30T22:50:06.766Z,2.63
2019-05-30T22:52:37.529Z,2.33
2019-05-30T22:55:08.701Z,2.57
2019-05-30T22:57:39.408Z,2.00
2019-05-30T23:00:10.481Z,2.10
2019-05-30T23:02:40.941Z,3.20
2019-05-30T23:05:11.565Z,3.87
2019-05-30T23:07:42.041Z,2.20
2019-05-30T23:10:12.998Z,2.20
2019-05-30T23:12:44.138Z,2.27
2019-05-30T23:15:15.024Z,2.10
2019-05-30T23:17:46.269Z,1.90
2019-05-30T23:20:18.392Z,1.83
2019-05-30T23:22:48.881Z,2.43
2019-05-30T23:25:20.440Z,2.10
2019-05-30T23:27:51.518Z,2.07
2019-05-30T23:30:22.231Z,2.33
2019-05-30T23:32:52.698Z,2.10
2019-05-30T23:35:23.413Z,1.80
2019-05-30T23:37:54.703Z,2.50
2019-05-30T23:40:25.338Z,2.00
2019-05-30T23:42:55.823Z,3.40
2019-05-30T23:45:26.327Z,1.93
2019-05-30T23:47:57.679Z,2.00
2019-05-30T23:50:28.272Z,1.70
2019-05-30T23:52:58.909Z,2.60
2019-05-30T23:55:29.417Z,4.03
2019-05-30T23:58:00.810Z,1.47
